createdAt,value
2017-12-17T00:01:29.036Z,2.70
2017-12-17T00:03:56.598Z,2.70
2017-12-17T00:06:24.191Z,2.70
2017-12-17T00:08:52.524Z,2.80
2017-12-17T00:11:20.119Z,2.80
2017-12-17T00:13:47.673Z,2.70
2017-12-17T00:16:15.256Z,2.70
2017-12-17T00:18:42.923Z,2.70
2017-12-17T00:21:11.247Z,2.80
2017-12-17T00:23:38.809Z,2.70
2017-12-17T00:26:06.399Z,2.70
2017-12-17T00:28:33.979Z,2.80
2017-12-17T00:31:02.339Z,2.80
2017-12-17T00:33:29.912Z,2.80
2017-12-17T00:35:58.251Z,2.80
2017-12-17T00:38:25.835Z,2.80
2017-12-17T00:40:53.382Z,2.80
2017-12-17T00:43:20.991Z,2.90
2017-12-17T00:45:48.566Z,3.00
2017-12-17T00:48:16.422Z,3.00
2017-12-17T00:50:44.003Z,2.90
2017-12-17T00:53:11.558Z,2.90
2017-12-17T00:55:39.154Z,3.00
2017-12-17T00:58:07.476Z,3.00
2017-12-17T01:00:35.038Z,3.00
2017-12-17T01:03:02.639Z,3.00
2017-12-17T01:05:30.347Z,2.90
2017-12-17T01:07:57.943Z,3.00
2017-12-17T01:10:25.527Z,3.00
2017-12-17T01:12:54.011Z,2.90
2017-12-17T01:15:22.339Z,2.90
2017-12-17T01:17:49.918Z,2.90
2017-12-17T01:20:17.499Z,2.90
2017-12-17T01:22:45.151Z,3.00
2017-12-17T01:25:12.775Z,3.10
2017-12-17T01:27:40.441Z,3.00
2017-12-17T01:30:08.103Z,3.00
2017-12-17T01:32:35.683Z,3.00
2017-12-17T01:35:03.234Z,2.90
2017-12-17T01:37:30.920Z,3.00
2017-12-17T01:39:58.474Z,3.00
2017-12-17T01:42:26.055Z,3.10
2017-12-17T01:44:54.391Z,3.00
2017-12-17T01:47:22.084Z,3.00
2017-12-17T01:49:50.427Z,3.00
2017-12-17T01:52:18.884Z,3.00
2017-12-17T01:54:46.490Z,3.00
2017-12-17T01:57:14.835Z,3.00
2017-12-17T01:59:42.403Z,2.90
2017-12-17T02:02:10.003Z,3.00
2017-12-17T02:04:37.554Z,3.00
2017-12-17T02:07:05.906Z,2.90
2017-12-17T02:09:33.459Z,2.90
2017-12-17T02:12:01.059Z,3.00
2017-12-17T02:14:29.382Z,2.90
2017-12-17T02:16:56.935Z,2.90
2017-12-17T02:19:24.535Z,2.90
2017-12-17T02:21:52.893Z,3.00
2017-12-17T02:24:20.515Z,2.90
2017-12-17T02:26:48.075Z,2.90
2017-12-17T02:29:15.724Z,2.90
2017-12-17T02:31:43.315Z,2.90
2017-12-17T02:34:10.975Z,2.90
2017-12-17T02:36:38.548Z,2.90
2017-12-17T02:39:06.143Z,2.90
2017-12-17T02:41:33.700Z,2.80
2017-12-17T02:44:01.293Z,2.80
2017-12-17T02:46:28.887Z,2.80
2017-12-17T02:48:56.558Z,2.80
2017-12-17T02:51:24.268Z,2.80
2017-12-17T02:53:51.855Z,2.90
2017-12-17T02:56:19.519Z,2.90
2017-12-17T02:58:47.106Z,2.90
2017-12-17T03:01:15.429Z,2.90
2017-12-17T03:03:43.028Z,2.90
2017-12-17T03:06:10.584Z,2.80
2017-12-17T03:08:38.242Z,2.90
2017-12-17T03:11:05.952Z,2.90
2017-12-17T03:13:33.563Z,2.80
2017-12-17T03:16:01.171Z,2.70
2017-12-17T03:18:28.746Z,2.80
2017-12-17T03:20:56.345Z,2.80
2017-12-17T03:23:23.923Z,2.80
2017-12-17T03:25:51.512Z,2.80
2017-12-17T03:28:19.158Z,2.80
2017-12-17T03:30:46.732Z,2.70
2017-12-17T03:33:14.325Z,2.80
2017-12-17T03:35:41.871Z,2.70
2017-12-17T03:38:09.475Z,2.70
2017-12-17T03:40:37.835Z,2.80
2017-12-17T03:43:05.399Z,2.80
2017-12-17T03:45:33.784Z,2.80
2017-12-17T03:48:02.103Z,2.80
2017-12-17T03:50:29.654Z,2.80
2017-12-17T03:52:57.247Z,2.90
2017-12-17T03:55:24.802Z,2.80
2017-12-17T03:57:52.390Z,2.80
2017-12-17T04:00:20.718Z,2.80
2017-12-17T04:02:48.305Z,2.80
2017-12-17T04:05:15.938Z,2.80
2017-12-17T04:07:43.494Z,2.80
2017-12-17T04:10:11.124Z,2.70
2017-12-17T04:12:38.699Z,2.80
2017-12-17T04:15:06.375Z,2.70
2017-12-17T04:17:33.955Z,2.70
2017-12-17T04:20:01.518Z,2.80
2017-12-17T04:22:29.127Z,2.80
2017-12-17T04:24:56.681Z,2.80
2017-12-17T04:27:24.311Z,2.80
2017-12-17T04:29:52.834Z,2.70
2017-12-17T04:32:20.528Z,2.70
2017-12-17T04:34:48.112Z,2.70
2017-12-17T04:37:15.668Z,2.80
2017-12-17T04:39:44.014Z,2.80
2017-12-17T04:42:11.615Z,2.80
2017-12-17T04:44:39.936Z,3.00
2017-12-17T04:47:07.590Z,2.90
2017-12-17T04:49:35.246Z,2.90
2017-12-17T04:52:02.820Z,2.90
2017-12-17T04:54:30.404Z,2.80
2017-12-17T04:56:57.952Z,2.80
2017-12-17T04:59:25.512Z,2.90
2017-12-17T05:01:53.102Z,2.90
2017-12-17T05:04:21.435Z,2.90
2017-12-17T05:06:48.993Z,2.90
2017-12-17T05:09:16.623Z,2.90
2017-12-17T05:11:44.198Z,3.00
2017-12-17T05:14:11.786Z,2.90
2017-12-17T05:16:39.346Z,2.90
2017-12-17T05:19:06.927Z,2.90
2017-12-17T05:21:35.246Z,2.90
2017-12-17T05:24:02.874Z,2.90
2017-12-17T05:26:31.191Z,3.00
2017-12-17T05:28:58.754Z,3.00
2017-12-17T05:31:26.355Z,3.00
2017-12-17T05:33:54.686Z,2.90
2017-12-17T05:36:22.278Z,2.90
2017-12-17T05:38:49.838Z,2.80
2017-12-17T05:41:17.426Z,2.80
2017-12-17T05:43:45.015Z,2.80
2017-12-17T05:46:12.699Z,2.80
2017-12-17T05:48:40.256Z,2.80
2017-12-17T05:51:07.863Z,2.80
2017-12-17T05:53:35.419Z,2.80
2017-12-17T05:56:03.758Z,2.80
2017-12-17T05:58:31.354Z,2.70
2017-12-17T06:00:58.914Z,2.80
2017-12-17T06:03:26.596Z,2.80
2017-12-17T06:05:54.156Z,2.80
2017-12-17T06:08:21.752Z,2.80
2017-12-17T06:10:49.307Z,2.70
2017-12-17T06:13:16.939Z,2.60
2017-12-17T06:15:44.752Z,2.70
2017-12-17T06:18:13.075Z,2.70
2017-12-17T06:20:40.676Z,2.70
2017-12-17T06:23:08.310Z,2.70
2017-12-17T06:25:35.870Z,2.60
2017-12-17T06:28:03.511Z,2.70
2017-12-17T06:30:31.068Z,2.70
2017-12-17T06:32:58.651Z,2.70
2017-12-17T06:35:26.206Z,2.70
2017-12-17T06:37:53.855Z,2.70
2017-12-17T06:40:21.416Z,2.70
2017-12-17T06:42:49.119Z,2.70
2017-12-17T06:45:16.706Z,2.60
2017-12-17T06:47:44.271Z,2.70
2017-12-17T06:50:11.830Z,2.70
2017-12-17T06:52:39.406Z,2.70
2017-12-17T06:55:07.117Z,2.70
2017-12-17T06:57:34.677Z,2.70
2017-12-17T07:00:02.999Z,2.70
2017-12-17T07:02:30.590Z,2.70
2017-12-17T07:04:58.135Z,2.70
2017-12-17T07:07:25.730Z,2.70
2017-12-17T07:09:54.048Z,2.70
2017-12-17T07:12:21.626Z,2.70
2017-12-17T07:14:49.222Z,2.70
2017-12-17T07:17:17.555Z,2.70
2017-12-17T07:19:45.131Z,2.70
2017-12-17T07:22:12.865Z,2.70
2017-12-17T07:24:40.478Z,2.60
2017-12-17T07:27:08.819Z,2.70
2017-12-17T07:29:36.390Z,2.70
2017-12-17T07:32:03.959Z,2.60
2017-12-17T07:34:31.542Z,2.60
2017-12-17T07:36:59.903Z,2.60
2017-12-17T07:39:27.458Z,2.60
2017-12-17T07:41:55.043Z,2.60
2017-12-17T07:44:23.363Z,2.40
2017-12-17T07:46:50.943Z,2.40
2017-12-17T07:49:18.493Z,2.40
2017-12-17T07:51:46.107Z,2.40
2017-12-17T07:54:13.770Z,2.40
2017-12-17T07:56:41.440Z,2.50
2017-12-17T07:59:09.010Z,2.50
2017-12-17T08:01:36.591Z,2.40
2017-12-17T08:04:05.955Z,2.40
2017-12-17T08:06:33.504Z,2.50
2017-12-17T08:09:01.091Z,2.50
2017-12-17T08:11:28.666Z,2.50
2017-12-17T08:13:56.226Z,2.50
2017-12-17T08:16:23.899Z,2.40
2017-12-17T08:18:51.461Z,2.60
2017-12-17T08:21:19.044Z,2.50
2017-12-17T08:23:47.415Z,2.50
2017-12-17T08:26:15.778Z,2.50
2017-12-17T08:28:43.369Z,2.50
2017-12-17T08:31:10.946Z,2.50
2017-12-17T08:33:38.647Z,2.50
2017-12-17T08:36:06.215Z,2.60
2017-12-17T08:38:34.638Z,2.60
2017-12-17T08:41:02.330Z,2.60
2017-12-17T08:43:29.886Z,2.50
2017-12-17T08:45:57.517Z,2.50
2017-12-17T08:48:25.071Z,2.50
2017-12-17T08:50:52.667Z,2.40
2017-12-17T08:53:20.227Z,2.40
2017-12-17T08:55:47.957Z,2.40
2017-12-17T08:58:15.546Z,2.50
2017-12-17T09:00:43.380Z,2.40
2017-12-17T09:03:10.966Z,2.50
2017-12-17T09:05:38.599Z,2.70
2017-12-17T09:08:06.156Z,2.80
2017-12-17T09:10:33.787Z,2.80
2017-12-17T09:13:02.100Z,2.80
2017-12-17T09:15:29.759Z,2.80
2017-12-17T09:17:57.339Z,3.00
2017-12-17T09:20:24.956Z,3.00
2017-12-17T09:22:52.660Z,3.00
2017-12-17T09:25:20.274Z,3.00
2017-12-17T09:27:48.056Z,2.90
2017-12-17T09:30:15.930Z,2.90
2017-12-17T09:32:43.580Z,3.10
2017-12-17T09:35:11.183Z,3.10
2017-12-17T09:37:38.803Z,3.00
2017-12-17T09:40:06.355Z,2.90
2017-12-17T09:42:34.069Z,2.80
2017-12-17T09:45:01.679Z,2.80
2017-12-17T09:47:29.443Z,2.80
2017-12-17T09:49:56.999Z,3.00
2017-12-17T09:52:24.731Z,2.70
2017-12-17T09:54:53.128Z,2.80
2017-12-17T09:57:20.708Z,2.80
2017-12-17T09:59:48.303Z,2.90
2017-12-17T10:02:15.875Z,2.80
2017-12-17T10:04:43.501Z,2.90
2017-12-17T10:07:11.137Z,3.00
2017-12-17T10:09:38.813Z,2.90
2017-12-17T10:12:06.394Z,3.00
2017-12-17T10:14:34.015Z,2.90
2017-12-17T10:17:01.603Z,3.00
2017-12-17T10:19:29.202Z,2.90
2017-12-17T10:21:57.581Z,3.20
2017-12-17T10:24:25.948Z,3.00
2017-12-17T10:26:54.320Z,3.60
2017-12-17T10:29:22.028Z,3.60
2017-12-17T10:31:49.585Z,3.40
2017-12-17T10:34:17.183Z,3.40
2017-12-17T10:36:44.749Z,3.30
2017-12-17T10:39:12.424Z,3.30
2017-12-17T10:41:40.842Z,3.60
2017-12-17T10:44:08.439Z,3.60
2017-12-17T10:46:36.011Z,3.50
2017-12-17T10:49:03.827Z,3.60
2017-12-17T10:51:31.436Z,3.90
2017-12-17T10:53:59.002Z,4.10
2017-12-17T10:56:27.378Z,4.00
2017-12-17T10:58:55.723Z,4.60
2017-12-17T11:01:23.330Z,4.60
2017-12-17T11:03:51.656Z,5.60
2017-12-17T11:06:19.291Z,5.60
2017-12-17T11:08:46.863Z,6.60
2017-12-17T11:11:14.525Z,6.60
2017-12-17T11:13:42.273Z,6.40
2017-12-17T11:16:09.888Z,7.10
2017-12-17T11:18:38.282Z,5.80
2017-12-17T11:21:06.646Z,4.60
2017-12-17T11:23:35.015Z,4.50
2017-12-17T11:26:02.716Z,4.50
2017-12-17T11:28:30.464Z,4.20
2017-12-17T11:30:58.970Z,3.90
2017-12-17T11:33:26.561Z,3.80
2017-12-17T11:35:54.123Z,3.90
2017-12-17T11:38:21.955Z,3.70
2017-12-17T11:40:49.614Z,3.50
2017-12-17T11:43:17.216Z,3.30
2017-12-17T11:45:44.788Z,3.20
2017-12-17T11:48:13.143Z,3.50
2017-12-17T11:50:40.767Z,3.50
2017-12-17T11:53:08.346Z,3.60
2017-12-17T11:55:35.987Z,3.40
2017-12-17T11:58:03.543Z,3.20
2017-12-17T12:00:31.135Z,3.40
2017-12-17T12:02:58.701Z,3.30
2017-12-17T12:05:26.423Z,3.40
2017-12-17T12:07:53.986Z,3.40
2017-12-17T12:10:21.547Z,3.50
2017-12-17T12:12:49.147Z,3.50
2017-12-17T12:15:16.771Z,3.40
2017-12-17T12:17:44.379Z,3.30
2017-12-17T12:20:12.804Z,3.50
2017-12-17T12:22:40.459Z,3.50
2017-12-17T12:25:08.048Z,3.50
2017-12-17T12:27:35.609Z,3.60
2017-12-17T12:30:03.299Z,3.40
2017-12-17T12:32:31.750Z,3.50
2017-12-17T12:34:59.358Z,3.40
2017-12-17T12:37:26.933Z,3.50
2017-12-17T12:39:54.506Z,3.50
2017-12-17T12:42:22.150Z,3.60
2017-12-17T12:44:49.709Z,3.60
2017-12-17T12:47:17.305Z,3.40
2017-12-17T12:49:44.889Z,3.40
2017-12-17T12:52:13.307Z,3.30
2017-12-17T12:54:40.996Z,3.20
2017-12-17T12:57:08.577Z,3.30
2017-12-17T12:59:36.159Z,3.40
2017-12-17T13:02:03.730Z,3.50
2017-12-17T13:04:31.405Z,3.60
2017-12-17T13:06:58.967Z,3.40
2017-12-17T13:09:26.631Z,3.40
2017-12-17T13:11:54.194Z,3.40
2017-12-17T13:14:21.845Z,3.30
2017-12-17T13:16:49.436Z,3.30
2017-12-17T13:19:17.024Z,3.30
2017-12-17T13:21:45.426Z,3.40
2017-12-17T13:24:12.992Z,3.30
2017-12-17T13:26:40.657Z,3.40
2017-12-17T13:29:08.250Z,3.30
2017-12-17T13:31:35.863Z,3.30
2017-12-17T13:34:03.440Z,3.30
2017-12-17T13:36:31.040Z,3.30
2017-12-17T13:38:58.655Z,3.50
2017-12-17T13:41:26.229Z,3.30
2017-12-17T13:43:53.811Z,3.30
2017-12-17T13:46:21.379Z,3.40
2017-12-17T13:48:49.009Z,3.10
2017-12-17T13:51:16.564Z,3.20
2017-12-17T13:53:44.131Z,3.30
2017-12-17T13:56:11.757Z,3.20
2017-12-17T13:58:39.323Z,3.20
2017-12-17T14:01:06.986Z,3.30
2017-12-17T14:03:34.551Z,3.20
2017-12-17T14:06:02.134Z,3.20
2017-12-17T14:08:29.695Z,3.20
2017-12-17T14:10:57.287Z,3.10
2017-12-17T14:13:25.655Z,3.00
2017-12-17T14:15:54.003Z,3.10
2017-12-17T14:18:21.615Z,3.10
2017-12-17T14:20:49.188Z,3.10
2017-12-17T14:23:16.842Z,3.00
2017-12-17T14:25:44.457Z,3.00
2017-12-17T14:28:12.079Z,3.00
2017-12-17T14:30:39.648Z,3.00
2017-12-17T14:33:07.246Z,2.90
2017-12-17T14:35:35.726Z,3.10
2017-12-17T14:38:03.274Z,3.10
2017-12-17T14:40:30.851Z,3.10
2017-12-17T14:42:59.367Z,3.10
2017-12-17T14:45:27.027Z,3.10
2017-12-17T14:47:54.687Z,3.00
2017-12-17T14:50:22.423Z,3.00
2017-12-17T14:52:50.768Z,3.00
2017-12-17T14:55:18.431Z,3.00
2017-12-17T14:57:46.092Z,3.10
2017-12-17T15:00:13.809Z,3.10
2017-12-17T15:02:41.445Z,3.10
2017-12-17T15:05:09.805Z,3.10
2017-12-17T15:07:37.459Z,3.10
2017-12-17T15:10:05.088Z,3.10
2017-12-17T15:12:32.687Z,3.10
2017-12-17T15:15:01.068Z,3.10
2017-12-17T15:17:29.449Z,3.10
2017-12-17T15:19:57.848Z,3.00
2017-12-17T15:22:25.447Z,3.00
2017-12-17T15:24:53.016Z,3.10
2017-12-17T15:27:20.640Z,3.20
2017-12-17T15:29:48.251Z,3.00
2017-12-17T15:32:15.928Z,2.90
2017-12-17T15:34:44.375Z,3.00
2017-12-17T15:37:11.939Z,3.00
2017-12-17T15:39:39.555Z,3.00
2017-12-17T15:42:07.121Z,3.00
2017-12-17T15:44:34.715Z,3.00
2017-12-17T15:47:02.340Z,2.90
2017-12-17T15:49:29.967Z,3.00
2017-12-17T15:51:58.303Z,2.90
2017-12-17T15:54:26.006Z,2.90
2017-12-17T15:56:53.564Z,2.90
2017-12-17T15:59:21.146Z,2.90
2017-12-17T16:01:48.714Z,2.90
2017-12-17T16:04:16.310Z,2.90
2017-12-17T16:06:43.922Z,2.80
2017-12-17T16:09:11.643Z,2.80
2017-12-17T16:11:40.070Z,2.90
2017-12-17T16:14:07.643Z,2.90
2017-12-17T16:16:35.235Z,2.80
2017-12-17T16:19:02.827Z,2.80
2017-12-17T16:21:30.544Z,2.90
2017-12-17T16:23:58.114Z,2.90
2017-12-17T16:26:26.514Z,2.90
2017-12-17T16:28:54.209Z,2.90
2017-12-17T16:31:21.851Z,2.90
2017-12-17T16:33:49.463Z,2.90
2017-12-17T16:36:17.196Z,2.90
2017-12-17T16:38:44.798Z,2.80
2017-12-17T16:41:12.707Z,2.90
2017-12-17T16:43:40.335Z,2.90
2017-12-17T16:46:08.823Z,2.80
2017-12-17T16:48:38.235Z,2.80
2017-12-17T16:51:05.999Z,2.80
2017-12-17T16:53:33.557Z,2.90
2017-12-17T16:56:01.158Z,3.00
2017-12-17T16:58:28.743Z,2.90
2017-12-17T17:00:56.376Z,2.90
2017-12-17T17:03:23.908Z,2.80
2017-12-17T17:05:51.466Z,2.80
2017-12-17T17:08:19.103Z,2.80
2017-12-17T17:10:46.707Z,2.90
2017-12-17T17:13:14.341Z,2.90
2017-12-17T17:15:41.905Z,2.80
2017-12-17T17:18:09.504Z,2.80
2017-12-17T17:20:37.953Z,2.80
2017-12-17T17:23:05.535Z,2.80
2017-12-17T17:25:33.206Z,2.80
2017-12-17T17:28:00.768Z,2.80
2017-12-17T17:30:28.392Z,2.90
2017-12-17T17:32:56.036Z,2.80
2017-12-17T17:35:23.619Z,2.80
2017-12-17T17:37:51.195Z,2.80
2017-12-17T17:40:18.803Z,2.70
2017-12-17T17:42:46.359Z,2.70
2017-12-17T17:45:13.926Z,2.80
2017-12-17T17:47:41.508Z,2.80
2017-12-17T17:50:09.070Z,2.70
2017-12-17T17:52:36.711Z,2.70
2017-12-17T17:55:04.278Z,2.80
2017-12-17T17:57:31.867Z,2.70
2017-12-17T17:59:59.464Z,2.60
2017-12-17T18:02:27.030Z,2.70
2017-12-17T18:04:54.704Z,2.80
2017-12-17T18:07:22.240Z,2.80
2017-12-17T18:09:49.824Z,2.80
2017-12-17T18:12:17.426Z,2.70
2017-12-17T18:14:44.998Z,2.70
2017-12-17T18:17:13.359Z,2.80
2017-12-17T18:19:41.178Z,2.80
2017-12-17T18:22:08.794Z,2.80
2017-12-17T18:24:37.902Z,2.80
2017-12-17T18:27:06.239Z,2.80
2017-12-17T18:29:33.871Z,2.80
2017-12-17T18:32:01.502Z,2.80
2017-12-17T18:34:29.955Z,2.80
2017-12-17T18:36:57.515Z,2.80
2017-12-17T18:39:25.095Z,2.90
2017-12-17T18:41:53.451Z,2.60
2017-12-17T18:44:21.827Z,2.60
2017-12-17T18:46:49.428Z,2.60
2017-12-17T18:49:17.054Z,2.70
2017-12-17T18:51:44.646Z,2.70
2017-12-17T18:54:12.199Z,2.80
2017-12-17T18:56:39.976Z,2.70
2017-12-17T18:59:07.543Z,2.60
2017-12-17T19:01:35.119Z,2.50
2017-12-17T19:04:02.715Z,2.60
2017-12-17T19:06:31.083Z,2.60
2017-12-17T19:08:58.811Z,2.60
2017-12-17T19:11:26.400Z,2.60
2017-12-17T19:13:54.043Z,2.70
2017-12-17T19:16:21.671Z,2.70
2017-12-17T19:18:49.243Z,2.80
2017-12-17T19:21:16.839Z,2.70
2017-12-17T19:23:44.435Z,2.60
2017-12-17T19:26:12.228Z,2.60
2017-12-17T19:28:39.798Z,2.70
2017-12-17T19:31:07.365Z,2.60
2017-12-17T19:33:35.003Z,2.60
2017-12-17T19:36:02.604Z,2.60
2017-12-17T19:38:30.313Z,2.60
2017-12-17T19:40:57.868Z,2.60
2017-12-17T19:43:25.568Z,2.60
2017-12-17T19:45:53.320Z,2.50
2017-12-17T19:48:21.065Z,2.60
2017-12-17T19:50:48.677Z,2.60
2017-12-17T19:53:17.023Z,2.50
2017-12-17T19:55:44.630Z,2.50
2017-12-17T19:58:13.030Z,2.60
2017-12-17T20:00:40.611Z,2.60
2017-12-17T20:03:08.265Z,2.50
2017-12-17T20:05:35.797Z,2.50
2017-12-17T20:08:03.426Z,2.50
2017-12-17T20:10:31.781Z,2.60
2017-12-17T20:12:59.403Z,2.60
2017-12-17T20:15:27.011Z,2.50
2017-12-17T20:17:54.616Z,2.60
2017-12-17T20:20:22.199Z,2.50
2017-12-17T20:22:49.766Z,2.60
2017-12-17T20:25:17.373Z,2.60
2017-12-17T20:27:45.741Z,2.50
2017-12-17T20:30:14.120Z,2.40
2017-12-17T20:32:42.569Z,2.50
2017-12-17T20:35:10.268Z,2.50
2017-12-17T20:37:38.643Z,2.50
2017-12-17T20:40:06.984Z,2.50
2017-12-17T20:42:34.608Z,2.50
2017-12-17T20:45:02.270Z,2.50
2017-12-17T20:47:29.833Z,2.40
2017-12-17T20:49:57.507Z,2.40
2017-12-17T20:52:25.075Z,2.50
2017-12-17T20:54:52.660Z,2.50
2017-12-17T20:57:20.226Z,2.50
2017-12-17T20:59:48.742Z,2.40
2017-12-17T21:02:16.506Z,2.40
2017-12-17T21:04:44.091Z,2.50
2017-12-17T21:07:11.697Z,2.50
2017-12-17T21:09:40.023Z,2.50
2017-12-17T21:12:07.655Z,2.50
2017-12-17T21:14:35.295Z,2.40
2017-12-17T21:17:03.678Z,2.40
2017-12-17T21:19:32.046Z,2.30
2017-12-17T21:22:00.440Z,2.40
2017-12-17T21:24:28.052Z,2.40
2017-12-17T21:26:55.814Z,2.40
2017-12-17T21:29:23.419Z,2.40
2017-12-17T21:31:50.993Z,2.40
2017-12-17T21:34:18.555Z,2.40
2017-12-17T21:36:46.146Z,2.40
2017-12-17T21:39:13.771Z,2.40
2017-12-17T21:41:41.371Z,2.30
2017-12-17T21:44:08.924Z,2.40
2017-12-17T21:46:36.546Z,2.30
2017-12-17T21:49:04.125Z,2.40
2017-12-17T21:51:31.704Z,2.50
2017-12-17T21:53:59.311Z,2.40
2017-12-17T21:56:26.880Z,2.40
2017-12-17T21:58:54.543Z,2.40
2017-12-17T22:01:22.156Z,2.30
2017-12-17T22:03:49.752Z,2.40
2017-12-17T22:06:17.315Z,2.30
2017-12-17T22:08:44.911Z,2.40
2017-12-17T22:11:12.468Z,2.30
2017-12-17T22:13:40.055Z,2.40
2017-12-17T22:16:07.678Z,2.30
2017-12-17T22:18:35.244Z,2.30
2017-12-17T22:21:02.832Z,2.40
2017-12-17T22:23:31.295Z,2.40
2017-12-17T22:25:58.871Z,2.40
2017-12-17T22:28:27.290Z,2.30
2017-12-17T22:30:54.868Z,2.30
2017-12-17T22:33:22.571Z,2.30
2017-12-17T22:35:50.898Z,2.40
2017-12-17T22:38:18.547Z,2.40
2017-12-17T22:40:46.138Z,2.40
2017-12-17T22:43:13.707Z,2.30
2017-12-17T22:45:41.375Z,2.30
2017-12-17T22:48:08.927Z,2.30
2017-12-17T22:50:36.540Z,2.30
2017-12-17T22:53:04.115Z,2.20
2017-12-17T22:55:31.675Z,2.20
2017-12-17T22:57:59.266Z,2.20
2017-12-17T23:00:26.820Z,2.20
2017-12-17T23:02:54.434Z,2.20
2017-12-17T23:05:22.004Z,2.20
2017-12-17T23:07:49.579Z,2.30
2017-12-17T23:10:17.179Z,2.20
2017-12-17T23:12:45.554Z,2.20
2017-12-17T23:15:14.069Z,2.20
2017-12-17T23:17:41.700Z,2.20
2017-12-17T23:20:09.247Z,2.20
2017-12-17T23:22:37.569Z,2.20
2017-12-17T23:25:05.161Z,2.20
2017-12-17T23:27:32.799Z,2.20
2017-12-17T23:30:00.369Z,2.30
2017-12-17T23:32:27.931Z,2.20
2017-12-17T23:34:55.519Z,2.20
2017-12-17T23:37:23.910Z,2.20
2017-12-17T23:39:52.250Z,2.20
2017-12-17T23:42:19.807Z,2.20
2017-12-17T23:44:47.402Z,2.20
2017-12-17T23:47:15.911Z,2.20
2017-12-17T23:49:43.499Z,2.20
2017-12-17T23:52:11.055Z,2.10
2017-12-17T23:54:38.738Z,2.10
2017-12-17T23:57:06.338Z,2.10
2017-12-17T23:59:34.031Z,2.10
